Terminal Aerodrome Forecast
Issued by NWS Memphis, TN

Home | Current Version | Previous Version | Text Only | Print | Product List | Glossary On
Versions: 1 2 3 4 5 6 7 8 9 10 11 12 13 14 15 16
000
FTUS44 KMEG 031129
TAFMKL
TAF
KMKL 031129Z 0312/0412 24010KT P6SM VCTS OVC050CB
      TEMPO 0318/0321 4SM TSRA OVC025CB
     FM040000 24010KT P6SM VCSH OVC040
     FM040700 23003KT 4SM BR OVC030=

USA.gov is the U.S. government's official web portal to all federal, state and local government web resources and services.